Time,TemperatureF,DewpointF,PressureIn,WindDirection,WindDirectionDegrees,WindSpeedMPH,WindSpeedGustMPH,Humidity,HourlyPrecipIn,Conditions,Clouds,dailyrainin,SoftwareType,DateUTC
2013-02-16 00:03:00,31.7,29.6,29.93,WNW,297,2.0,3.0,92,0.00,CLR,,0.00,WeatherDisplay:10.37,2013-02-16 05:03:00,
2013-02-16 00:13:00,32.3,30.2,29.93,WNW,291,1.0,3.0,92,0.00,OVC,,0.00,WeatherDisplay:10.37,2013-02-16 05:13:00,
2013-02-16 00:23:00,32.5,30.2,29.93,WNW,291,0.0,2.0,91,0.00,OVC,,0.00,WeatherDisplay:10.37,2013-02-16 05:23:00,
2013-02-16 00:33:00,32.8,30.2,29.93,NNW,328,1.0,4.0,90,0.00,OVC,,0.00,WeatherDisplay:10.37,2013-02-16 05:33:00,
2013-02-16 00:43:00,32.8,29.9,29.92,NNW,338,0.0,2.0,89,0.00,OVC,,0.00,WeatherDisplay:10.37,2013-02-16 05:43:00,
2013-02-16 00:53:00,32.2,29.3,29.92,NNW,340,1.0,2.0,89,0.00,OVC,,0.00,WeatherDisplay:10.37,2013-02-16 05:53:00,
2013-02-16 01:03:00,32.3,29.4,29.92,NNW,338,1.0,2.0,89,0.00,OVC,,0.00,WeatherDisplay:10.37,2013-02-16 06:03:00,
2013-02-16 01:13:00,32.2,29.3,29.94,SSW,198,0.0,3.0,89,0.00,-SN,,0.00,WeatherDisplay:10.37,2013-02-16 06:13:00,
2013-02-16 01:23:00,31.7,28.9,29.93,South,179,0.0,1.0,89,0.00,-SN,,0.00,WeatherDisplay:10.37,2013-02-16 06:23:00,
2013-02-16 01:33:00,32.2,29.6,29.93,NW,326,2.0,3.0,90,0.00,-SN,,0.00,WeatherDisplay:10.37,2013-02-16 06:33:00,
2013-02-16 01:43:00,32.8,29.6,29.92,NW,325,2.0,4.0,88,0.00,-SN,,0.00,WeatherDisplay:10.37,2013-02-16 06:43:00,
2013-02-16 01:53:00,31.9,28.8,29.93,WNW,295,3.0,4.0,88,0.00,-SN,,0.00,WeatherDisplay:10.37,2013-02-16 06:53:00,
2013-02-16 02:03:00,32.2,28.5,29.93,NNW,338,3.0,6.0,86,0.00,-SN,,0.00,WeatherDisplay:10.37,2013-02-16 07:03:00,
2013-02-16 02:13:00,33.5,27.4,29.93,North,2,2.0,7.0,78,0.00,-SN,,0.00,WeatherDisplay:10.37,2013-02-16 07:13:00,
2013-02-16 02:23:00,34.0,27.2,29.90,NE,38,1.0,9.0,76,0.00,-SN,,0.00,WeatherDisplay:10.37,2013-02-16 07:23:00,
2013-02-16 02:33:00,34.6,26.8,29.90,NNW,335,3.0,6.0,73,0.00,-SN,,0.00,WeatherDisplay:10.37,2013-02-16 07:33:00,
2013-02-16 02:43:00,34.4,27.0,29.92,NNW,327,3.0,6.0,74,0.00,-SN,,0.00,WeatherDisplay:10.37,2013-02-16 07:43:00,
2013-02-16 02:53:00,34.6,27.2,29.93,NW,319,6.0,12.0,74,0.00,-SN,,0.00,WeatherDisplay:10.37,2013-02-16 07:53:00,
2013-02-16 03:03:00,34.6,27.2,29.93,NW,320,5.0,9.0,74,0.00,-SN,,0.00,WeatherDisplay:10.37,2013-02-16 08:03:00,
2013-02-16 03:13:00,33.2,27.7,29.93,NNW,328,5.0,14.0,80,0.00,-SN,,0.00,WeatherDisplay:10.37,2013-02-16 08:13:00,
2013-02-16 03:23:00,31.9,27.9,29.93,NW,324,6.0,12.0,85,0.00,-SN,,0.00,WeatherDisplay:10.37,2013-02-16 08:23:00,
2013-02-16 03:33:00,31.5,28.1,29.93,NNW,335,3.0,10.0,87,0.00,-SN,,0.00,WeatherDisplay:10.37,2013-02-16 08:33:00,
2013-02-16 03:43:00,31.3,28.2,29.94,North,10,1.0,8.0,88,0.00,-SN,,0.00,WeatherDisplay:10.37,2013-02-16 08:43:00,
2013-02-16 03:53:00,31.2,28.1,29.93,North,353,6.0,12.0,88,0.00,-SN,,0.00,WeatherDisplay:10.37,2013-02-16 08:53:00,
2013-02-16 04:03:00,30.9,28.3,29.93,NNW,347,6.0,12.0,90,0.00,-SN,,0.00,WeatherDisplay:10.37,2013-02-16 09:03:00,
2013-02-16 04:13:00,30.6,28.3,29.93,NNW,342,5.0,12.0,91,0.00,-SN,,0.00,WeatherDisplay:10.37,2013-02-16 09:13:00,
2013-02-16 04:23:00,30.4,28.4,29.93,North,355,1.0,10.0,92,0.00,-SN,,0.00,WeatherDisplay:10.37,2013-02-16 09:23:00,
2013-02-16 04:33:00,30.3,28.5,29.93,NNE,30,2.0,12.0,93,0.00,-SN,,0.00,WeatherDisplay:10.37,2013-02-16 09:33:00,
2013-02-16 04:43:00,30.1,28.3,29.92,North,8,3.0,10.0,93,0.00,-SN,,0.00,WeatherDisplay:10.37,2013-02-16 09:43:00,
2013-02-16 04:53:00,30.1,28.3,29.93,NNW,340,5.0,10.0,93,0.00,-SN,,0.00,WeatherDisplay:10.37,2013-02-16 09:53:00,
2013-02-16 05:03:00,30.1,28.3,29.93,NNW,342,2.0,7.0,93,0.00,-SN,,0.00,WeatherDisplay:10.37,2013-02-16 10:03:00,
2013-02-16 05:13:00,30.0,28.2,29.93,NNW,348,2.0,10.0,93,0.00,-SN,,0.00,WeatherDisplay:10.37,2013-02-16 10:13:00,
2013-02-16 05:23:00,30.0,28.2,29.93,NNW,345,3.0,10.0,93,0.00,-SN,,0.00,WeatherDisplay:10.37,2013-02-16 10:23:00,
2013-02-16 05:33:00,29.8,28.0,29.93,NNW,342,5.0,9.0,93,0.00,-SN,,0.00,WeatherDisplay:10.37,2013-02-16 10:33:00,
2013-02-16 05:43:00,29.7,27.9,29.92,North,353,2.0,7.0,93,0.00,-SN,,0.00,WeatherDisplay:10.37,2013-02-16 10:43:00,
2013-02-16 05:53:00,29.7,27.9,29.93,NNW,348,2.0,7.0,93,0.00,-SN,,0.00,WeatherDisplay:10.37,2013-02-16 10:53:00,
2013-02-16 06:03:00,29.5,28.0,29.93,NNW,334,2.0,9.0,94,0.00,-SN,,0.00,WeatherDisplay:10.37,2013-02-16 11:03:00,
2013-02-16 06:13:00,29.5,28.0,29.93,NNW,348,1.0,7.0,94,0.00,-SN,,0.00,WeatherDisplay:10.37,2013-02-16 11:13:00,
2013-02-16 06:23:00,29.5,28.0,29.93,North,355,1.0,4.0,94,0.00,-SN,,0.00,WeatherDisplay:10.37,2013-02-16 11:23:00,
2013-02-16 06:33:00,29.4,28.1,29.93,NE,41,1.0,4.0,95,0.00,-SN,,0.00,WeatherDisplay:10.37,2013-02-16 11:33:00,
2013-02-16 06:43:00,29.4,28.1,29.92,NNE,22,2.0,5.0,95,0.00,-SN,,0.00,WeatherDisplay:10.37,2013-02-16 11:43:00,
2013-02-16 06:53:00,29.4,28.1,29.92,NNE,29,3.0,6.0,95,0.00,-SN,,0.00,WeatherDisplay:10.37,2013-02-16 11:53:00,
2013-02-16 07:03:00,29.4,27.9,29.92,North,5,2.0,6.0,94,0.00,-SN,,0.00,WeatherDisplay:10.37,2013-02-16 12:03:00,
2013-02-16 07:13:00,29.4,27.9,29.93,NNE,21,1.0,5.0,94,0.00,-SN,,0.00,WeatherDisplay:10.37,2013-02-16 12:13:00,
2013-02-16 07:23:00,29.4,27.9,29.93,NNE,13,2.0,5.0,94,0.00,-SN,,0.00,WeatherDisplay:10.37,2013-02-16 12:23:00,
2013-02-16 07:33:00,29.4,27.9,29.93,NNW,332,1.0,5.0,94,0.00,-SN,,0.00,WeatherDisplay:10.37,2013-02-16 12:33:00,
2013-02-16 07:43:00,29.5,28.0,29.94,NNW,332,0.0,3.0,94,0.00,-SN,,0.00,WeatherDisplay:10.37,2013-02-16 12:43:00,
2013-02-16 07:53:00,29.5,28.0,29.94,NW,326,2.0,6.0,94,0.00,-SN,,0.00,WeatherDisplay:10.37,2013-02-16 12:53:00,
2013-02-16 08:03:00,29.7,27.9,29.94,North,351,0.0,5.0,93,0.00,OVC,,0.00,WeatherDisplay:10.37,2013-02-16 13:03:00,
2013-02-16 08:13:00,29.8,27.8,29.94,NNW,328,2.0,3.0,92,0.00,-SN,,0.00,WeatherDisplay:10.37,2013-02-16 13:13:00,
2013-02-16 08:23:00,29.9,27.4,29.94,NNW,346,2.0,5.0,90,0.00,-SN,,0.00,WeatherDisplay:10.37,2013-02-16 13:23:00,
2013-02-16 08:33:00,30.1,27.3,29.94,North,10,1.0,4.0,89,0.00,-SN,,0.00,WeatherDisplay:10.37,2013-02-16 13:33:00,
2013-02-16 08:43:00,30.3,27.2,29.94,North,353,1.0,3.0,88,0.00,-SN,,0.00,WeatherDisplay:10.37,2013-02-16 13:43:00,
2013-02-16 08:53:00,30.6,27.2,29.94,NE,41,1.0,3.0,87,0.00,-SN,,0.00,WeatherDisplay:10.37,2013-02-16 13:53:00,
2013-02-16 09:03:00,30.7,27.0,29.94,North,356,3.0,6.0,86,0.00,-SN,,0.00,WeatherDisplay:10.37,2013-02-16 14:03:00,
2013-02-16 09:13:00,30.6,26.6,29.93,North,6,2.0,7.0,85,0.00,-SN,,0.00,WeatherDisplay:10.37,2013-02-16 14:13:00,
2013-02-16 09:23:00,30.9,26.9,29.92,NE,38,1.0,5.0,85,0.00,-SN,,0.00,WeatherDisplay:10.37,2013-02-16 14:23:00,
2013-02-16 09:33:00,31.0,27.0,29.92,ENE,62,1.0,4.0,85,0.00,-SN,,0.00,WeatherDisplay:10.37,2013-02-16 14:33:00,
2013-02-16 09:43:00,31.5,27.3,29.92,NNE,27,1.0,5.0,84,0.00,-SN,,0.00,WeatherDisplay:10.37,2013-02-16 14:43:00,
2013-02-16 09:53:00,31.7,26.8,29.92,NE,44,3.0,7.0,82,0.01,-SN,,0.01,WeatherDisplay:10.37,2013-02-16 14:53:00,
2013-02-16 10:03:00,31.9,27.1,29.92,ENE,67,2.0,6.0,82,0.00,-SN,,0.01,WeatherDisplay:10.37,2013-02-16 15:03:00,
2013-02-16 10:13:00,32.3,26.8,29.92,NNW,334,3.0,7.0,80,0.00,-SN,,0.01,WeatherDisplay:10.37,2013-02-16 15:13:00,
2013-02-16 10:23:00,32.5,26.7,29.92,North,7,1.0,5.0,79,0.00,-SN,,0.01,WeatherDisplay:10.37,2013-02-16 15:23:00,
2013-02-16 10:33:00,32.4,26.6,29.92,North,355,3.0,6.0,79,0.01,-SN,,0.02,WeatherDisplay:10.37,2013-02-16 15:33:00,
2013-02-16 10:43:00,32.2,26.4,29.92,NE,47,3.0,7.0,79,0.00,-SN,,0.02,WeatherDisplay:10.37,2013-02-16 15:43:00,
2013-02-16 10:53:00,32.0,26.5,29.92,NE,50,1.0,7.0,80,0.00,-SN,,0.02,WeatherDisplay:10.37,2013-02-16 15:53:00,
2013-02-16 11:03:00,32.0,26.5,29.92,North,359,1.0,6.0,80,0.00,-SN,,0.02,WeatherDisplay:10.37,2013-02-16 16:03:00,
2013-02-16 11:13:00,32.2,26.7,29.91,NNE,14,1.0,4.0,80,0.00,-SN,,0.02,WeatherDisplay:10.37,2013-02-16 16:13:00,
2013-02-16 11:23:00,32.3,26.2,29.91,NW,326,3.0,6.0,78,0.00,-SN,,0.02,WeatherDisplay:10.37,2013-02-16 16:23:00,
2013-02-16 11:33:00,32.7,26.6,29.91,NNE,28,1.0,7.0,78,0.00,-SN,,0.02,WeatherDisplay:10.37,2013-02-16 16:33:00,
2013-02-16 11:43:00,32.9,27.1,29.89,ENE,70,3.0,8.0,79,0.00,-SN,,0.02,WeatherDisplay:10.37,2013-02-16 16:43:00,
2013-02-16 11:53:00,32.8,26.7,29.89,ENE,74,5.0,7.0,78,0.00,-SN,,0.02,WeatherDisplay:10.37,2013-02-16 16:53:00,
2013-02-16 12:03:00,32.9,26.8,29.89,ENE,61,3.0,9.0,78,0.00,-SN,,0.02,WeatherDisplay:10.37,2013-02-16 17:03:00,
2013-02-16 12:13:00,32.6,26.5,29.89,East,82,3.0,10.0,78,0.00,-SN,,0.02,WeatherDisplay:10.37,2013-02-16 17:13:00,
2013-02-16 12:23:00,32.8,26.7,29.89,ENE,63,2.0,5.0,78,0.00,-SN,,0.02,WeatherDisplay:10.37,2013-02-16 17:23:00,
2013-02-16 12:33:00,32.8,26.7,29.89,ENE,65,1.0,5.0,78,0.00,-SN,,0.02,WeatherDisplay:10.37,2013-02-16 17:33:00,
2013-02-16 12:43:00,32.8,27.3,29.88,East,92,2.0,5.0,80,0.00,-SN,,0.02,WeatherDisplay:10.37,2013-02-16 17:43:00,
2013-02-16 12:53:00,32.8,27.0,29.87,East,87,2.0,4.0,79,0.00,-SN,,0.02,WeatherDisplay:10.37,2013-02-16 17:53:00,
2013-02-16 13:03:00,32.9,27.1,29.87,East,88,1.0,5.0,79,0.00,-SN,,0.02,WeatherDisplay:10.37,2013-02-16 18:03:00,
2013-02-16 13:13:00,33.1,27.3,29.87,East,100,2.0,6.0,79,0.00,-SN,,0.02,WeatherDisplay:10.37,2013-02-16 18:13:00,
2013-02-16 13:23:00,33.5,27.1,29.87,ESE,103,2.0,5.0,77,0.00,-SN,,0.02,WeatherDisplay:10.37,2013-02-16 18:23:00,
2013-02-16 13:33:00,33.4,27.0,29.87,East,82,2.0,5.0,77,0.00,-SN,,0.02,WeatherDisplay:10.37,2013-02-16 18:33:00,
2013-02-16 13:43:00,33.6,27.1,29.86,ESE,112,2.0,5.0,77,0.00,-SN,,0.02,WeatherDisplay:10.37,2013-02-16 18:43:00,
2013-02-16 13:53:00,33.8,26.4,29.86,East,84,2.0,5.0,74,0.00,-SN,,0.02,WeatherDisplay:10.37,2013-02-16 18:53:00,
2013-02-16 14:03:00,34.0,26.3,29.86,ENE,67,1.0,5.0,73,0.00,-SN,,0.02,WeatherDisplay:10.37,2013-02-16 19:03:00,
2013-02-16 14:13:00,34.1,26.0,29.85,NE,40,2.0,4.0,72,0.00,-SN,,0.02,WeatherDisplay:10.37,2013-02-16 19:13:00,
2013-02-16 14:23:00,33.8,26.1,29.85,East,90,3.0,6.0,73,0.00,-SN,,0.02,WeatherDisplay:10.37,2013-02-16 19:23:00,
2013-02-16 14:33:00,34.0,25.9,29.85,ENE,65,2.0,5.0,72,0.00,-SN,,0.02,WeatherDisplay:10.37,2013-02-16 19:33:00,
2013-02-16 14:43:00,34.1,26.3,29.85,NE,54,2.0,6.0,73,0.00,-SN,,0.02,WeatherDisplay:10.37,2013-02-16 19:43:00,
2013-02-16 14:53:00,34.4,26.3,29.84,ENE,58,1.0,3.0,72,0.00,-SN,,0.02,WeatherDisplay:10.37,2013-02-16 19:53:00,
2013-02-16 15:03:00,34.8,26.0,29.84,NNE,24,2.0,5.0,70,0.00,OVC,,0.02,WeatherDisplay:10.37,2013-02-16 20:03:00,
2013-02-16 15:13:00,34.7,25.6,29.84,ENE,66,1.0,5.0,69,0.00,OVC,,0.02,WeatherDisplay:10.37,2013-02-16 20:13:00,
2013-02-16 15:23:00,34.8,25.3,29.84,NNW,332,3.0,5.0,68,0.00,OVC,,0.02,WeatherDisplay:10.37,2013-02-16 20:23:00,
2013-02-16 15:33:00,35.0,25.1,29.84,NNE,30,1.0,4.0,67,0.00,OVC,,0.02,WeatherDisplay:10.37,2013-02-16 20:33:00,
2013-02-16 15:43:00,35.1,24.9,29.83,NNE,17,3.0,5.0,66,0.00,OVC,,0.02,WeatherDisplay:10.37,2013-02-16 20:43:00,
2013-02-16 15:53:00,34.7,24.9,29.83,NNE,21,1.0,4.0,67,0.00,OVC,,0.02,WeatherDisplay:10.37,2013-02-16 20:53:00,
2013-02-16 16:03:00,34.8,23.9,29.83,NNE,31,2.0,6.0,64,0.00,OVC,,0.02,WeatherDisplay:10.37,2013-02-16 21:03:00,
2013-02-16 16:13:00,34.8,23.5,29.82,NNE,23,1.0,6.0,63,0.00,OVC,,0.02,WeatherDisplay:10.37,2013-02-16 21:13:00,
2013-02-16 16:23:00,34.8,23.1,29.81,NNE,22,2.0,7.0,62,0.00,OVC,,0.02,WeatherDisplay:10.37,2013-02-16 21:23:00,
2013-02-16 16:33:00,34.8,23.9,29.81,NE,45,3.0,6.0,64,0.00,OVC,,0.02,WeatherDisplay:10.37,2013-02-16 21:33:00,
2013-02-16 16:43:00,34.4,25.3,29.81,NE,56,2.0,5.0,69,0.00,OVC,,0.02,WeatherDisplay:10.37,2013-02-16 21:43:00,
2013-02-16 16:53:00,34.1,25.0,29.81,ENE,74,2.0,5.0,69,0.00,OVC,,0.02,WeatherDisplay:10.37,2013-02-16 21:53:00,
2013-02-16 17:03:00,34.1,25.0,29.81,ENE,66,1.0,5.0,69,0.00,OVC,,0.02,WeatherDisplay:10.37,2013-02-16 22:03:00,
2013-02-16 17:13:00,34.0,24.9,29.82,ENE,69,1.0,4.0,69,0.00,OVC,,0.02,WeatherDisplay:10.37,2013-02-16 22:13:00,
2013-02-16 17:23:00,34.0,23.8,29.82,North,8,1.0,5.0,66,0.00,OVC,,0.02,WeatherDisplay:10.37,2013-02-16 22:23:00,
2013-02-16 17:33:00,33.8,22.9,29.82,NNE,16,2.0,5.0,64,0.00,OVC,,0.02,WeatherDisplay:10.37,2013-02-16 22:33:00,
2013-02-16 17:43:00,33.8,22.9,29.82,North,357,2.0,4.0,64,0.00,OVC,,0.02,WeatherDisplay:10.37,2013-02-16 22:43:00,
2013-02-16 17:53:00,33.8,20.6,29.83,NNW,343,2.0,6.0,58,0.00,OVC,,0.02,WeatherDisplay:10.37,2013-02-16 22:53:00,
2013-02-16 18:03:00,33.8,20.2,29.83,North,0,2.0,7.0,57,0.00,OVC,,0.02,WeatherDisplay:10.37,2013-02-16 23:03:00,
2013-02-16 18:13:00,33.7,21.7,29.83,NNE,33,1.0,6.0,61,0.00,OVC,,0.02,WeatherDisplay:10.37,2013-02-16 23:13:00,
2013-02-16 18:23:00,33.6,21.2,29.83,North,8,2.0,7.0,60,0.00,OVC,,0.02,WeatherDisplay:10.37,2013-02-16 23:23:00,
2013-02-16 18:33:00,33.5,23.0,29.83,ENE,63,5.0,7.0,65,0.00,OVC,,0.02,WeatherDisplay:10.37,2013-02-16 23:33:00,
2013-02-16 18:43:00,32.8,24.8,29.82,ENE,72,5.0,9.0,72,0.00,OVC,,0.02,WeatherDisplay:10.37,2013-02-16 23:43:00,
2013-02-16 18:53:00,31.5,27.5,29.83,ENE,68,7.0,16.0,85,0.00,OVC,,0.02,WeatherDisplay:10.37,2013-02-16 23:53:00,
2013-02-16 19:03:00,30.7,27.3,29.83,East,88,5.0,10.0,87,0.00,OVC,,0.02,WeatherDisplay:10.37,2013-02-17 00:03:00,
2013-02-16 19:13:00,30.4,26.4,29.83,East,100,3.0,7.0,85,0.00,OVC,,0.02,WeatherDisplay:10.37,2013-02-17 00:13:00,
2013-02-16 19:23:00,30.4,25.6,29.82,East,83,2.0,7.0,82,0.00,OVC,,0.02,WeatherDisplay:10.37,2013-02-17 00:23:00,
2013-02-16 19:33:00,30.9,21.9,29.82,NE,52,7.0,12.0,69,0.00,OVC,,0.02,WeatherDisplay:10.37,2013-02-17 00:33:00,
2013-02-16 19:43:00,31.5,20.0,29.81,ENE,61,8.0,14.0,62,0.00,OVC,,0.02,WeatherDisplay:10.37,2013-02-17 00:43:00,
2013-02-16 19:53:00,31.4,19.5,29.80,NE,56,5.0,13.0,61,0.00,OVC,,0.02,WeatherDisplay:10.37,2013-02-17 00:53:00,
2013-02-16 20:03:00,31.2,18.9,29.80,NE,56,6.0,16.0,60,0.00,OVC,,0.02,WeatherDisplay:10.37,2013-02-17 01:03:00,
2013-02-16 20:13:00,31.0,18.7,29.80,NE,51,5.0,15.0,60,0.00,OVC,,0.02,WeatherDisplay:10.37,2013-02-17 01:13:00,
2013-02-16 20:23:00,30.9,19.0,29.80,NE,55,1.0,13.0,61,0.00,OVC,,0.02,WeatherDisplay:10.37,2013-02-17 01:23:00,
2013-02-16 20:33:00,30.6,18.3,29.80,NNE,29,2.0,12.0,60,0.00,OVC,,0.02,WeatherDisplay:10.37,2013-02-17 01:33:00,
2013-02-16 20:43:00,30.3,17.7,29.80,NE,45,2.0,12.0,59,0.00,OVC,,0.02,WeatherDisplay:10.37,2013-02-17 01:43:00,
2013-02-16 20:53:00,30.1,17.1,29.80,NNE,32,5.0,16.0,58,0.00,OVC,,0.02,WeatherDisplay:10.37,2013-02-17 01:53:00,
2013-02-16 21:03:00,29.8,16.4,29.80,NNE,19,7.0,15.0,57,0.00,OVC,,0.02,WeatherDisplay:10.37,2013-02-17 02:03:00,
2013-02-16 21:13:00,29.7,16.3,29.80,NNE,14,7.0,12.0,57,0.00,OVC,,0.02,WeatherDisplay:10.37,2013-02-17 02:13:00,
2013-02-16 21:23:00,29.5,16.1,29.80,North,354,6.0,14.0,57,0.00,OVC,,0.02,WeatherDisplay:10.37,2013-02-17 02:23:00,
2013-02-16 21:33:00,29.2,15.8,29.80,NNE,18,3.0,12.0,57,0.00,OVC,,0.02,WeatherDisplay:10.37,2013-02-17 02:33:00,
2013-02-16 21:43:00,29.2,15.4,29.80,NNE,24,6.0,12.0,56,0.00,OVC,,0.02,WeatherDisplay:10.37,2013-02-17 02:43:00,
2013-02-16 21:53:00,29.1,14.5,29.78,NNE,16,3.0,14.0,54,0.00,OVC,,0.02,WeatherDisplay:10.37,2013-02-17 02:53:00,
2013-02-16 22:03:00,28.8,14.6,29.78,NNE,25,3.0,12.0,55,0.00,OVC,,0.02,WeatherDisplay:10.37,2013-02-17 03:03:00,
2013-02-16 22:13:00,28.6,14.9,29.78,NNE,32,5.0,12.0,56,0.00,OVC,,0.02,WeatherDisplay:10.37,2013-02-17 03:13:00,
2013-02-16 22:23:00,28.5,15.2,29.77,NE,49,6.0,17.0,57,0.00,OVC,,0.02,WeatherDisplay:10.37,2013-02-17 03:23:00,
2013-02-16 22:33:00,28.3,16.1,29.77,NE,44,3.0,12.0,60,0.00,OVC,,0.02,WeatherDisplay:10.37,2013-02-17 03:33:00,
2013-02-16 22:43:00,27.8,17.2,29.75,North,7,7.0,12.0,64,0.00,OVC,,0.02,WeatherDisplay:10.37,2013-02-17 03:43:00,
2013-02-16 22:53:00,27.3,18.1,29.75,North,359,6.0,15.0,68,0.00,OVC,,0.02,WeatherDisplay:10.37,2013-02-17 03:53:00,
2013-02-16 23:03:00,26.8,19.0,29.75,North,353,3.0,14.0,72,0.00,-SN,,0.02,WeatherDisplay:10.37,2013-02-17 04:03:00,
2013-02-16 23:13:00,26.3,19.5,29.74,North,351,2.0,13.0,75,0.00,-SN,,0.02,WeatherDisplay:10.37,2013-02-17 04:13:00,
2013-02-16 23:23:00,26.1,19.6,29.74,NNW,343,2.0,7.0,76,0.00,-SN,,0.02,WeatherDisplay:10.37,2013-02-17 04:23:00,
2013-02-16 23:33:00,25.8,19.6,29.74,North,0,3.0,9.0,77,0.00,-SN,,0.02,WeatherDisplay:10.37,2013-02-17 04:33:00,
2013-02-16 23:43:00,25.7,19.5,29.74,NE,37,3.0,20.0,77,0.00,-SN,,0.02,WeatherDisplay:10.37,2013-02-17 04:43:00,
2013-02-16 23:53:00,25.4,19.2,29.72,NNW,346,5.0,10.0,77,0.00,-SN,,0.02,WeatherDisplay:10.37,2013-02-17 04:53:00,